sensor_id;sensor_type;location;lat;lon;timestamp;P1;durP1;ratioP1;P2;durP2;ratioP2
75997;SDS011;64685;48.762;44.822;2023-02-14T00:04:56;5.20;;;1.67;;
75997;SDS011;64685;48.762;44.822;2023-02-14T00:09:59;7.00;;;2.40;;
75997;SDS011;64685;48.762;44.822;2023-02-14T00:15:04;8.95;;;2.42;;
75997;SDS011;64685;48.762;44.822;2023-02-14T00:20:26;11.20;;;2.78;;
75997;SDS011;64685;48.762;44.822;2023-02-14T00:25:32;6.03;;;2.67;;
75997;SDS011;64685;48.762;44.822;2023-02-14T00:30:35;9.00;;;2.67;;
75997;SDS011;64685;48.762;44.822;2023-02-14T00:35:38;7.28;;;2.78;;
75997;SDS011;64685;48.762;44.822;2023-02-14T00:40:41;19.98;;;5.28;;
75997;SDS011;64685;48.762;44.822;2023-02-14T00:51:41;9.10;;;2.95;;
75997;SDS011;64685;48.762;44.822;2023-02-14T00:56:43;7.93;;;2.83;;
75997;SDS011;64685;48.762;44.822;2023-02-14T01:01:46;10.32;;;3.83;;
75997;SDS011;64685;48.762;44.822;2023-02-14T01:06:49;6.00;;;1.98;;
75997;SDS011;64685;48.762;44.822;2023-02-14T01:11:51;6.70;;;2.58;;
75997;SDS011;64685;48.762;44.822;2023-02-14T01:16:54;7.72;;;3.40;;
75997;SDS011;64685;48.762;44.822;2023-02-14T01:21:58;7.00;;;2.05;;
75997;SDS011;64685;48.762;44.822;2023-02-14T01:27:03;5.45;;;2.30;;
75997;SDS011;64685;48.762;44.822;2023-02-14T01:32:06;7.88;;;3.47;;
75997;SDS011;64685;48.762;44.822;2023-02-14T01:37:09;12.00;;;4.25;;
75997;SDS011;64685;48.762;44.822;2023-02-14T01:42:11;6.30;;;3.05;;
75997;SDS011;64685;48.762;44.822;2023-02-14T01:47:14;9.05;;;3.83;;
75997;SDS011;64685;48.762;44.822;2023-02-14T01:52:19;8.38;;;3.47;;
75997;SDS011;64685;48.762;44.822;2023-02-14T01:57:27;13.43;;;3.95;;
75997;SDS011;64685;48.762;44.822;2023-02-14T02:02:37;9.57;;;3.40;;
75997;SDS011;64685;48.762;44.822;2023-02-14T02:07:42;13.32;;;4.35;;
75997;SDS011;64685;48.762;44.822;2023-02-14T02:12:44;12.15;;;4.25;;
75997;SDS011;64685;48.762;44.822;2023-02-14T02:28:54;9.30;;;3.95;;
75997;SDS011;64685;48.762;44.822;2023-02-14T02:34:39;8.55;;;3.08;;
75997;SDS011;64685;48.762;44.822;2023-02-14T02:40:15;8.07;;;3.38;;
75997;SDS011;64685;48.762;44.822;2023-02-14T02:52:02;8.27;;;2.75;;
75997;SDS011;64685;48.762;44.822;2023-02-14T02:57:21;8.18;;;3.65;;
75997;SDS011;64685;48.762;44.822;2023-02-14T03:02:30;7.45;;;2.22;;
75997;SDS011;64685;48.762;44.822;2023-02-14T03:07:56;9.45;;;2.95;;
75997;SDS011;64685;48.762;44.822;2023-02-14T03:45:29;7.72;;;3.20;;
75997;SDS011;64685;48.762;44.822;2023-02-14T03:50:38;13.82;;;4.72;;
75997;SDS011;64685;48.762;44.822;2023-02-14T03:55:46;7.47;;;2.92;;
75997;SDS011;64685;48.762;44.822;2023-02-14T04:00:51;10.75;;;2.95;;
75997;SDS011;64685;48.762;44.822;2023-02-14T04:06:02;12.40;;;4.78;;
75997;SDS011;64685;48.762;44.822;2023-02-14T04:11:05;9.40;;;3.75;;
75997;SDS011;64685;48.762;44.822;2023-02-14T04:16:08;7.70;;;2.67;;
75997;SDS011;64685;48.762;44.822;2023-02-14T04:21:11;10.02;;;2.92;;
75997;SDS011;64685;48.762;44.822;2023-02-14T04:26:13;7.50;;;2.67;;
75997;SDS011;64685;48.762;44.822;2023-02-14T04:31:16;5.00;;;1.08;;
75997;SDS011;64685;48.762;44.822;2023-02-14T04:36:19;9.07;;;2.70;;
75997;SDS011;64685;48.762;44.822;2023-02-14T04:41:21;6.60;;;2.60;;
75997;SDS011;64685;48.762;44.822;2023-02-14T04:46:24;6.82;;;1.70;;
75997;SDS011;64685;48.762;44.822;2023-02-14T04:51:26;2.45;;;1.13;;
75997;SDS011;64685;48.762;44.822;2023-02-14T04:56:29;6.88;;;2.10;;
75997;SDS011;64685;48.762;44.822;2023-02-14T05:01:32;4.65;;;2.03;;
75997;SDS011;64685;48.762;44.822;2023-02-14T05:06:34;3.83;;;1.52;;
75997;SDS011;64685;48.762;44.822;2023-02-14T05:11:37;7.25;;;2.30;;
75997;SDS011;64685;48.762;44.822;2023-02-14T05:16:43;5.90;;;2.00;;
75997;SDS011;64685;48.762;44.822;2023-02-14T05:21:45;5.55;;;2.47;;
75997;SDS011;64685;48.762;44.822;2023-02-14T05:26:48;5.05;;;1.38;;
75997;SDS011;64685;48.762;44.822;2023-02-14T05:31:52;5.80;;;1.75;;
75997;SDS011;64685;48.762;44.822;2023-02-14T05:36:55;5.55;;;1.20;;
75997;SDS011;64685;48.762;44.822;2023-02-14T05:41:58;7.53;;;2.35;;
75997;SDS011;64685;48.762;44.822;2023-02-14T05:47:01;10.70;;;2.83;;
75997;SDS011;64685;48.762;44.822;2023-02-14T05:52:04;7.53;;;2.60;;
75997;SDS011;64685;48.762;44.822;2023-02-14T05:57:07;5.63;;;1.80;;
75997;SDS011;64685;48.762;44.822;2023-02-14T06:02:09;10.45;;;3.10;;
75997;SDS011;64685;48.762;44.822;2023-02-14T06:07:12;6.28;;;1.80;;
75997;SDS011;64685;48.762;44.822;2023-02-14T06:12:16;3.83;;;1.90;;
75997;SDS011;64685;48.762;44.822;2023-02-14T06:17:18;5.75;;;2.08;;
75997;SDS011;64685;48.762;44.822;2023-02-14T06:22:21;6.25;;;2.15;;
75997;SDS011;64685;48.762;44.822;2023-02-14T06:27:23;4.82;;;1.48;;
75997;SDS011;64685;48.762;44.822;2023-02-14T06:32:29;7.45;;;2.40;;
75997;SDS011;64685;48.762;44.822;2023-02-14T06:37:34;7.90;;;3.67;;
75997;SDS011;64685;48.762;44.822;2023-02-14T06:42:37;5.43;;;1.92;;
75997;SDS011;64685;48.762;44.822;2023-02-14T06:47:40;5.63;;;2.00;;
75997;SDS011;64685;48.762;44.822;2023-02-14T06:52:43;6.80;;;2.85;;
75997;SDS011;64685;48.762;44.822;2023-02-14T06:57:45;10.15;;;3.22;;
75997;SDS011;64685;48.762;44.822;2023-02-14T07:02:48;6.32;;;2.45;;
75997;SDS011;64685;48.762;44.822;2023-02-14T07:07:50;8.30;;;2.47;;
75997;SDS011;64685;48.762;44.822;2023-02-14T07:12:54;11.68;;;3.42;;
75997;SDS011;64685;48.762;44.822;2023-02-14T07:17:58;11.40;;;2.95;;
75997;SDS011;64685;48.762;44.822;2023-02-14T07:23:00;10.10;;;3.45;;
75997;SDS011;64685;48.762;44.822;2023-02-14T07:28:04;8.65;;;3.50;;
75997;SDS011;64685;48.762;44.822;2023-02-14T07:33:07;11.73;;;3.60;;
75997;SDS011;64685;48.762;44.822;2023-02-14T07:38:10;12.27;;;3.70;;
75997;SDS011;64685;48.762;44.822;2023-02-14T07:43:12;10.15;;;3.60;;
75997;SDS011;64685;48.762;44.822;2023-02-14T07:48:15;11.60;;;3.90;;
75997;SDS011;64685;48.762;44.822;2023-02-14T07:53:17;9.80;;;4.13;;
75997;SDS011;64685;48.762;44.822;2023-02-14T07:58:20;12.88;;;4.30;;
75997;SDS011;64685;48.762;44.822;2023-02-14T08:03:23;10.27;;;3.90;;
75997;SDS011;64685;48.762;44.822;2023-02-14T08:08:26;10.35;;;4.57;;
75997;SDS011;64685;48.762;44.822;2023-02-14T08:13:31;9.50;;;3.92;;
75997;SDS011;64685;48.762;44.822;2023-02-14T08:18:35;9.80;;;3.70;;
75997;SDS011;64685;48.762;44.822;2023-02-14T08:28:41;10.38;;;4.55;;
75997;SDS011;64685;48.762;44.822;2023-02-14T08:33:45;11.43;;;4.57;;
75997;SDS011;64685;48.762;44.822;2023-02-14T08:38:48;11.10;;;4.43;;
75997;SDS011;64685;48.762;44.822;2023-02-14T08:43:50;12.88;;;4.85;;
75997;SDS011;64685;48.762;44.822;2023-02-14T08:48:53;8.88;;;3.65;;
75997;SDS011;64685;48.762;44.822;2023-02-14T08:53:57;12.20;;;4.40;;
75997;SDS011;64685;48.762;44.822;2023-02-14T08:58:59;9.40;;;3.80;;
75997;SDS011;64685;48.762;44.822;2023-02-14T09:04:02;10.18;;;3.58;;
75997;SDS011;64685;48.762;44.822;2023-02-14T09:09:05;9.82;;;4.32;;
75997;SDS011;64685;48.762;44.822;2023-02-14T09:14:08;10.73;;;4.53;;
75997;SDS011;64685;48.762;44.822;2023-02-14T09:19:10;10.02;;;4.20;;
75997;SDS011;64685;48.762;44.822;2023-02-14T09:24:13;11.85;;;4.30;;
75997;SDS011;64685;48.762;44.822;2023-02-14T09:29:18;9.68;;;3.95;;
75997;SDS011;64685;48.762;44.822;2023-02-14T09:34:21;10.98;;;4.07;;
75997;SDS011;64685;48.762;44.822;2023-02-14T09:39:24;10.75;;;4.22;;
75997;SDS011;64685;48.762;44.822;2023-02-14T09:49:30;12.05;;;5.47;;
75997;SDS011;64685;48.762;44.822;2023-02-14T09:54:39;9.98;;;4.75;;
75997;SDS011;64685;48.762;44.822;2023-02-14T10:04:56;9.75;;;3.95;;
75997;SDS011;64685;48.762;44.822;2023-02-14T10:10:28;9.35;;;4.50;;
75997;SDS011;64685;48.762;44.822;2023-02-14T10:15:41;11.18;;;4.50;;
75997;SDS011;64685;48.762;44.822;2023-02-14T10:20:48;9.98;;;4.68;;
75997;SDS011;64685;48.762;44.822;2023-02-14T10:41:55;9.13;;;4.85;;
75997;SDS011;64685;48.762;44.822;2023-02-14T10:57:43;8.90;;;4.47;;
75997;SDS011;64685;48.762;44.822;2023-02-14T11:02:51;10.85;;;5.25;;
75997;SDS011;64685;48.762;44.822;2023-02-14T11:07:57;9.93;;;4.97;;
75997;SDS011;64685;48.762;44.822;2023-02-14T11:13:00;11.30;;;4.95;;
75997;SDS011;64685;48.762;44.822;2023-02-14T11:18:23;10.57;;;4.90;;
75997;SDS011;64685;48.762;44.822;2023-02-14T11:23:53;10.30;;;4.90;;
75997;SDS011;64685;48.762;44.822;2023-02-14T11:33:58;9.38;;;4.85;;
75997;SDS011;64685;48.762;44.822;2023-02-14T11:39:51;9.30;;;4.22;;
75997;SDS011;64685;48.762;44.822;2023-02-14T11:44:35;8.98;;;4.22;;
75997;SDS011;64685;48.762;44.822;2023-02-14T11:49:58;9.98;;;4.43;;
75997;SDS011;64685;48.762;44.822;2023-02-14T11:55:04;9.02;;;3.53;;
75997;SDS011;64685;48.762;44.822;2023-02-14T12:00:15;8.65;;;4.60;;
75997;SDS011;64685;48.762;44.822;2023-02-14T12:05:33;9.75;;;4.25;;
75997;SDS011;64685;48.762;44.822;2023-02-14T12:10:45;9.77;;;4.30;;
75997;SDS011;64685;48.762;44.822;2023-02-14T12:16:03;11.68;;;4.75;;
75997;SDS011;64685;48.762;44.822;2023-02-14T12:21:12;10.10;;;4.60;;
75997;SDS011;64685;48.762;44.822;2023-02-14T12:26:26;11.35;;;5.60;;
75997;SDS011;64685;48.762;44.822;2023-02-14T12:31:35;12.60;;;5.57;;
75997;SDS011;64685;48.762;44.822;2023-02-14T12:36:46;10.90;;;4.78;;
75997;SDS011;64685;48.762;44.822;2023-02-14T13:25:57;11.70;;;5.05;;
75997;SDS011;64685;48.762;44.822;2023-02-14T13:31:04;11.73;;;4.78;;
75997;SDS011;64685;48.762;44.822;2023-02-14T13:36:09;14.05;;;5.25;;
75997;SDS011;64685;48.762;44.822;2023-02-14T13:41:14;11.50;;;4.53;;
75997;SDS011;64685;48.762;44.822;2023-02-14T13:46:19;8.27;;;4.20;;
75997;SDS011;64685;48.762;44.822;2023-02-14T13:51:48;10.38;;;4.63;;
75997;SDS011;64685;48.762;44.822;2023-02-14T13:56:53;10.57;;;4.35;;
75997;SDS011;64685;48.762;44.822;2023-02-14T14:02:29;15.25;;;5.32;;
75997;SDS011;64685;48.762;44.822;2023-02-14T14:07:30;11.68;;;4.90;;
75997;SDS011;64685;48.762;44.822;2023-02-14T14:12:36;14.02;;;5.05;;
75997;SDS011;64685;48.762;44.822;2023-02-14T14:17:40;11.85;;;4.57;;
75997;SDS011;64685;48.762;44.822;2023-02-14T14:28:43;10.55;;;4.05;;
75997;SDS011;64685;48.762;44.822;2023-02-14T14:33:52;8.55;;;3.78;;
75997;SDS011;64685;48.762;44.822;2023-02-14T14:39:04;9.57;;;3.90;;
75997;SDS011;64685;48.762;44.822;2023-02-14T14:44:13;8.23;;;3.58;;
75997;SDS011;64685;48.762;44.822;2023-02-14T14:49:16;10.23;;;3.55;;
75997;SDS011;64685;48.762;44.822;2023-02-14T14:54:20;8.27;;;2.80;;
75997;SDS011;64685;48.762;44.822;2023-02-14T14:59:35;7.28;;;2.95;;
75997;SDS011;64685;48.762;44.822;2023-02-14T15:04:41;9.77;;;3.47;;
75997;SDS011;64685;48.762;44.822;2023-02-14T15:09:45;7.43;;;3.60;;
75997;SDS011;64685;48.762;44.822;2023-02-14T15:14:48;9.38;;;3.78;;
75997;SDS011;64685;48.762;44.822;2023-02-14T15:20:02;9.63;;;3.63;;
75997;SDS011;64685;48.762;44.822;2023-02-14T15:25:11;8.57;;;3.28;;
75997;SDS011;64685;48.762;44.822;2023-02-14T15:35:28;11.40;;;4.30;;
75997;SDS011;64685;48.762;44.822;2023-02-14T15:40:47;11.00;;;4.60;;
75997;SDS011;64685;48.762;44.822;2023-02-14T15:45:51;11.63;;;4.10;;
75997;SDS011;64685;48.762;44.822;2023-02-14T15:51:01;7.88;;;3.20;;
75997;SDS011;64685;48.762;44.822;2023-02-14T16:01:33;8.65;;;3.38;;
75997;SDS011;64685;48.762;44.822;2023-02-14T16:06:38;10.18;;;3.80;;
75997;SDS011;64685;48.762;44.822;2023-02-14T16:11:45;11.43;;;3.63;;
75997;SDS011;64685;48.762;44.822;2023-02-14T16:17:05;10.80;;;3.15;;
75997;SDS011;64685;48.762;44.822;2023-02-14T16:22:26;9.45;;;3.28;;
75997;SDS011;64685;48.762;44.822;2023-02-14T16:27:33;9.68;;;3.70;;
75997;SDS011;64685;48.762;44.822;2023-02-14T16:32:35;10.77;;;3.60;;
75997;SDS011;64685;48.762;44.822;2023-02-14T16:37:39;11.27;;;3.75;;
75997;SDS011;64685;48.762;44.822;2023-02-14T16:42:41;12.43;;;3.95;;
75997;SDS011;64685;48.762;44.822;2023-02-14T16:47:45;10.80;;;4.30;;
75997;SDS011;64685;48.762;44.822;2023-02-14T16:52:49;16.25;;;5.70;;
75997;SDS011;64685;48.762;44.822;2023-02-14T16:57:52;13.38;;;5.00;;
75997;SDS011;64685;48.762;44.822;2023-02-14T17:02:57;13.93;;;4.63;;
75997;SDS011;64685;48.762;44.822;2023-02-14T17:08:08;12.70;;;3.97;;
75997;SDS011;64685;48.762;44.822;2023-02-14T17:13:18;11.55;;;3.95;;
75997;SDS011;64685;48.762;44.822;2023-02-14T17:18:25;11.13;;;3.45;;
75997;SDS011;64685;48.762;44.822;2023-02-14T17:23:27;7.57;;;2.63;;
75997;SDS011;64685;48.762;44.822;2023-02-14T17:28:30;9.57;;;2.97;;
75997;SDS011;64685;48.762;44.822;2023-02-14T17:33:35;6.78;;;2.53;;
75997;SDS011;64685;48.762;44.822;2023-02-14T17:38:38;9.38;;;2.85;;
75997;SDS011;64685;48.762;44.822;2023-02-14T17:43:41;5.75;;;2.63;;
75997;SDS011;64685;48.762;44.822;2023-02-14T17:48:44;6.43;;;2.45;;
75997;SDS011;64685;48.762;44.822;2023-02-14T17:53:49;7.85;;;2.00;;
75997;SDS011;64685;48.762;44.822;2023-02-14T17:58:53;5.93;;;1.88;;
75997;SDS011;64685;48.762;44.822;2023-02-14T18:03:56;5.38;;;1.98;;
75997;SDS011;64685;48.762;44.822;2023-02-14T18:09:03;6.30;;;2.30;;
75997;SDS011;64685;48.762;44.822;2023-02-14T18:14:07;5.25;;;1.98;;
75997;SDS011;64685;48.762;44.822;2023-02-14T18:19:10;7.55;;;2.60;;
75997;SDS011;64685;48.762;44.822;2023-02-14T18:24:16;8.00;;;3.05;;
75997;SDS011;64685;48.762;44.822;2023-02-14T18:29:19;4.15;;;1.60;;
75997;SDS011;64685;48.762;44.822;2023-02-14T18:34:22;5.68;;;1.67;;
75997;SDS011;64685;48.762;44.822;2023-02-14T18:39:25;4.35;;;1.73;;
75997;SDS011;64685;48.762;44.822;2023-02-14T18:44:27;9.07;;;2.72;;
75997;SDS011;64685;48.762;44.822;2023-02-14T18:49:30;9.88;;;2.70;;
75997;SDS011;64685;48.762;44.822;2023-02-14T18:54:33;6.50;;;2.20;;
75997;SDS011;64685;48.762;44.822;2023-02-14T18:59:38;5.03;;;1.92;;
75997;SDS011;64685;48.762;44.822;2023-02-14T19:04:42;6.05;;;2.22;;
75997;SDS011;64685;48.762;44.822;2023-02-14T19:09:44;7.82;;;2.40;;
75997;SDS011;64685;48.762;44.822;2023-02-14T19:14:47;7.63;;;2.25;;
75997;SDS011;64685;48.762;44.822;2023-02-14T19:19:50;5.20;;;1.80;;
75997;SDS011;64685;48.762;44.822;2023-02-14T19:24:54;5.53;;;1.90;;
75997;SDS011;64685;48.762;44.822;2023-02-14T19:29:56;4.20;;;1.63;;
75997;SDS011;64685;48.762;44.822;2023-02-14T19:34:59;5.40;;;1.75;;
75997;SDS011;64685;48.762;44.822;2023-02-14T19:40:04;4.63;;;1.60;;
75997;SDS011;64685;48.762;44.822;2023-02-14T19:45:07;4.35;;;1.52;;
75997;SDS011;64685;48.762;44.822;2023-02-14T19:50:10;4.32;;;1.60;;
75997;SDS011;64685;48.762;44.822;2023-02-14T19:55:21;5.38;;;2.10;;
75997;SDS011;64685;48.762;44.822;2023-02-14T20:00:24;3.33;;;1.50;;
75997;SDS011;64685;48.762;44.822;2023-02-14T20:05:26;4.88;;;1.33;;
75997;SDS011;64685;48.762;44.822;2023-02-14T20:15:37;3.42;;;1.30;;
75997;SDS011;64685;48.762;44.822;2023-02-14T20:20:44;3.38;;;1.60;;
75997;SDS011;64685;48.762;44.822;2023-02-14T20:26:03;7.50;;;1.98;;
75997;SDS011;64685;48.762;44.822;2023-02-14T20:31:08;4.57;;;1.50;;
75997;SDS011;64685;48.762;44.822;2023-02-14T20:36:12;5.03;;;2.10;;
75997;SDS011;64685;48.762;44.822;2023-02-14T20:41:15;6.00;;;1.85;;
75997;SDS011;64685;48.762;44.822;2023-02-14T20:46:17;4.72;;;1.70;;
75997;SDS011;64685;48.762;44.822;2023-02-14T20:51:20;5.30;;;1.95;;
75997;SDS011;64685;48.762;44.822;2023-02-14T20:56:23;4.55;;;1.80;;
75997;SDS011;64685;48.762;44.822;2023-02-14T21:01:26;5.85;;;1.92;;
75997;SDS011;64685;48.762;44.822;2023-02-14T21:06:30;6.53;;;1.95;;
75997;SDS011;64685;48.762;44.822;2023-02-14T21:11:34;5.95;;;1.83;;
75997;SDS011;64685;48.762;44.822;2023-02-14T21:16:37;7.10;;;2.10;;
75997;SDS011;64685;48.762;44.822;2023-02-14T21:21:40;6.47;;;1.80;;
75997;SDS011;64685;48.762;44.822;2023-02-14T21:26:43;6.68;;;2.08;;
75997;SDS011;64685;48.762;44.822;2023-02-14T21:31:45;6.30;;;1.88;;
75997;SDS011;64685;48.762;44.822;2023-02-14T21:36:48;4.57;;;1.73;;
75997;SDS011;64685;48.762;44.822;2023-02-14T21:41:51;5.95;;;2.08;;
75997;SDS011;64685;48.762;44.822;2023-02-14T21:46:53;7.03;;;2.30;;
75997;SDS011;64685;48.762;44.822;2023-02-14T21:51:56;7.32;;;2.10;;
75997;SDS011;64685;48.762;44.822;2023-02-14T21:56:58;5.35;;;2.10;;
75997;SDS011;64685;48.762;44.822;2023-02-14T22:02:01;5.68;;;1.90;;
75997;SDS011;64685;48.762;44.822;2023-02-14T22:07:05;6.47;;;2.28;;
75997;SDS011;64685;48.762;44.822;2023-02-14T22:12:07;6.32;;;2.80;;
75997;SDS011;64685;48.762;44.822;2023-02-14T22:17:10;9.45;;;2.88;;
75997;SDS011;64685;48.762;44.822;2023-02-14T22:22:15;6.72;;;2.22;;
75997;SDS011;64685;48.762;44.822;2023-02-14T22:27:17;5.30;;;1.63;;
75997;SDS011;64685;48.762;44.822;2023-02-14T22:32:22;6.88;;;1.88;;
75997;SDS011;64685;48.762;44.822;2023-02-14T22:37:25;5.95;;;2.00;;
75997;SDS011;64685;48.762;44.822;2023-02-14T22:42:28;6.82;;;1.95;;
75997;SDS011;64685;48.762;44.822;2023-02-14T22:47:31;6.35;;;2.20;;
75997;SDS011;64685;48.762;44.822;2023-02-14T22:52:33;5.15;;;2.28;;
75997;SDS011;64685;48.762;44.822;2023-02-14T22:57:36;5.05;;;1.83;;
75997;SDS011;64685;48.762;44.822;2023-02-14T23:02:38;5.00;;;2.05;;
75997;SDS011;64685;48.762;44.822;2023-02-14T23:07:41;6.47;;;2.00;;
75997;SDS011;64685;48.762;44.822;2023-02-14T23:12:45;6.28;;;1.63;;
75997;SDS011;64685;48.762;44.822;2023-02-14T23:18:09;5.95;;;1.70;;
75997;SDS011;64685;48.762;44.822;2023-02-14T23:23:32;4.00;;;1.38;;
75997;SDS011;64685;48.762;44.822;2023-02-14T23:28:35;7.63;;;2.10;;
75997;SDS011;64685;48.762;44.822;2023-02-14T23:33:37;5.03;;;1.83;;
75997;SDS011;64685;48.762;44.822;2023-02-14T23:38:40;5.78;;;1.77;;
75997;SDS011;64685;48.762;44.822;2023-02-14T23:43:42;7.13;;;2.60;;
75997;SDS011;64685;48.762;44.822;2023-02-14T23:48:45;6.75;;;2.17;;
75997;SDS011;64685;48.762;44.822;2023-02-14T23:53:47;8.93;;;2.60;;
75997;SDS011;64685;48.762;44.822;2023-02-14T23:58:50;8.07;;;3.08;;
